John James Audubon — WDE8037 — position and weather

sailwx.info

Track history (hours):
 
Tides and Currents Weather Stations Pressure Air Temp Water Temp Dewpoint Dewpoint Depression Visibility Wind Speed Wind Dir Waves Ship Positions

John James Audubon

Owner: Statue Cruises, Jersey City, NJ. More information available from US FCC via Universal Licensing System and Coast Guard Vessel Documentation Center.

Last reported at 2016-Jun-27 19:33 UTC. Time now 2016-Jun-27 20:30 UTC.
Position N 40°42' W 074°00'.

Length 37 m.

Type: Ship. MMSI: 367400770.

Date/timePositionNaut miles runAvg speedWind from/ knotsBaromVisibWave heightAir tempDewpointWater temp
2016-Jun-27 19:33N 40°42' W 074°00'1 1.4
2016-Jun-27 18:33N 40°41' W 074°02'1 1.4
2016-Jun-27 17:33N 40°42' W 074°00'0 0.0
2016-Jun-27 16:33N 40°42' W 074°00'1 1.4
2016-Jun-27 15:33N 40°41' W 074°02'1 1.4
2016-Jun-27 14:33N 40°42' W 074°00'0 0.0
2016-Jun-27 13:33N 40°42' W 074°00'2 0.2
2016-Jun-27 02:33N 40°45' W 074°01'1 0.7
2016-Jun-27 01:33N 40°44' W 074°01'2 2.2
2016-Jun-27 00:34N 40°42' W 074°01'2 1.8
2016-Jun-26 23:23N 40°44' W 074°01'0 0.0
2016-Jun-26 22:31N 40°44' W 074°01'0 0.0
2016-Jun-26 21:23N 40°44' W 074°01'0 0.0
2016-Jun-26 20:29N 40°44' W 074°01'2 1.8
2016-Jun-26 19:33N 40°42' W 074°00'0 0.1
2016-Jun-26 18:33N 40°42' W 074°00'2 2.1
2016-Jun-26 17:33N 40°41' W 074°03'2 2.1
2016-Jun-26 16:33N 40°42' W 074°00'0 0.0
2016-Jun-26 15:34N 40°42' W 074°00'2 1.7
2016-Jun-26 14:34N 40°41' W 074°02'1 1.0
2016-Jun-26 13:33N 40°42' W 074°01'2 0.2
2016-Jun-26 02:08N 40°44' W 074°01'2 4.0
2016-Jun-26 01:34N 40°42' W 074°02'1 1.1
2016-Jun-26 00:34N 40°42' W 074°01'2 2.3
2016-Jun-25 23:34N 40°44' W 074°01'0 0.1
2016-Jun-25 20:33N 40°44' W 074°01'2 1.6
2016-Jun-25 19:33N 40°42' W 074°00'0 0.0
2016-Jun-25 18:33N 40°42' W 074°00'1 1.5
2016-Jun-25 17:33N 40°41' W 074°02'1 1.5
2016-Jun-25 16:33N 40°42' W 074°00'0 0.0
2016-Jun-25 15:33N 40°42' W 074°00'2 1.8
2016-Jun-25 14:33N 40°42' W 074°02'2 2.1
2016-Jun-25 13:33N 40°43' W 074°01'0 0.5
2016-Jun-25 12:33N 40°44' W 074°01'2 0.1
2016-Jun-25 00:33N 40°43' W 074°02'0 0.1
2016-Jun-24 23:33N 40°43' W 074°02'2 1.8
2016-Jun-24 22:33N 40°44' W 074°01'0 0.0
2016-Jun-24 21:33N 40°44' W 074°01'0 0.0
2016-Jun-24 20:33N 40°44' W 074°01'0 0.0
2016-Jun-24 19:33N 40°44' W 074°01'0 0.0
2016-Jun-24 18:33N 40°44' W 074°01'0 0.0
2016-Jun-24 17:34N 40°44' W 074°01'0 0.0
2016-Jun-24 16:33N 40°44' W 074°01'1 1.2
2016-Jun-24 15:33N 40°43' W 074°02'1 0.9
2016-Jun-24 14:33N 40°43' W 074°03'  
2016-Jun-19 05:33N 40°43' W 074°02'2 1.7
2016-Jun-19 04:33N 40°44' W 074°01'3 2.9
2016-Jun-19 03:33N 40°41' W 074°02'3 3.4
2016-Jun-19 02:33N 40°45' W 074°01'1 0.8
2016-Jun-19 01:33N 40°44' W 074°01'0 0.0
2016-Jun-19 00:33N 40°44' W 074°01'0 0.0
2016-Jun-18 23:33N 40°44' W 074°01'0 0.0
2016-Jun-18 22:33N 40°44' W 074°01'0 0.0
2016-Jun-18 21:33N 40°44' W 074°01'0 0.0
2016-Jun-18 20:33N 40°44' W 074°01'0 0.0
2016-Jun-18 19:33N 40°44' W 074°01'0 0.0
2016-Jun-18 18:33N 40°44' W 074°01'0 0.0
2016-Jun-18 17:33N 40°44' W 074°01'0 0.0
2016-Jun-18 16:33N 40°44' W 074°01'0 0.0
2016-Jun-18 15:34N 40°44' W 074°01'2 0.1
2016-Jun-17 23:34N 40°43' W 074°03'0 0.0
2016-Jun-17 22:33N 40°43' W 074°03'0 0.0
2016-Jun-17 21:33N 40°43' W 074°03'0 0.0
2016-Jun-17 20:33N 40°43' W 074°03'0 0.0
2016-Jun-17 19:33N 40°43' W 074°03'  
Track history (hours):
 
Tides and Currents Weather Stations Pressure Air Temp Water Temp Dewpoint Dewpoint Depression Visibility Wind Speed Wind Dir Waves Ship Positions

John James Audubon

Owner: Statue Cruises, Jersey City, NJ. More information available from US FCC via Universal Licensing System and Coast Guard Vessel Documentation Center.

Last reported at 2016-Jun-27 19:33 UTC. Time now 2016-Jun-27 20:30 UTC.
Position N 40°42' W 074°00'.

Length 37 m.

Type: Ship. MMSI: 367400770.

Date/timePositionNaut miles runAvg speedWind from/ knotsBaromVisibWave heightAir tempDewpointWater temp
2016-Jun-27 19:33N 40°42' W 074°00'1 1.4
2016-Jun-27 18:33N 40°41' W 074°02'1 1.4
2016-Jun-27 17:33N 40°42' W 074°00'0 0.0
2016-Jun-27 16:33N 40°42' W 074°00'1 1.4
2016-Jun-27 15:33N 40°41' W 074°02'1 1.4
2016-Jun-27 14:33N 40°42' W 074°00'0 0.0
2016-Jun-27 13:33N 40°42' W 074°00'2 0.2
2016-Jun-27 02:33N 40°45' W 074°01'1 0.7
2016-Jun-27 01:33N 40°44' W 074°01'2 2.2
2016-Jun-27 00:34N 40°42' W 074°01'2 1.8
2016-Jun-26 23:23N 40°44' W 074°01'0 0.0
2016-Jun-26 22:31N 40°44' W 074°01'0 0.0
2016-Jun-26 21:23N 40°44' W 074°01'0 0.0
2016-Jun-26 20:29N 40°44' W 074°01'2 1.8
2016-Jun-26 19:33N 40°42' W 074°00'0 0.1
2016-Jun-26 18:33N 40°42' W 074°00'2 2.1
2016-Jun-26 17:33N 40°41' W 074°03'2 2.1
2016-Jun-26 16:33N 40°42' W 074°00'0 0.0
2016-Jun-26 15:34N 40°42' W 074°00'2 1.7
2016-Jun-26 14:34N 40°41' W 074°02'1 1.0
2016-Jun-26 13:33N 40°42' W 074°01'2 0.2
2016-Jun-26 02:08N 40°44' W 074°01'2 4.0
2016-Jun-26 01:34N 40°42' W 074°02'1 1.1
2016-Jun-26 00:34N 40°42' W 074°01'2 2.3
2016-Jun-25 23:34N 40°44' W 074°01'0 0.1
2016-Jun-25 20:33N 40°44' W 074°01'2 1.6
2016-Jun-25 19:33N 40°42' W 074°00'0 0.0
2016-Jun-25 18:33N 40°42' W 074°00'1 1.5
2016-Jun-25 17:33N 40°41' W 074°02'1 1.5
2016-Jun-25 16:33N 40°42' W 074°00'0 0.0
2016-Jun-25 15:33N 40°42' W 074°00'2 1.8
2016-Jun-25 14:33N 40°42' W 074°02'2 2.1
2016-Jun-25 13:33N 40°43' W 074°01'0 0.5
2016-Jun-25 12:33N 40°44' W 074°01'2 0.1
2016-Jun-25 00:33N 40°43' W 074°02'0 0.1
2016-Jun-24 23:33N 40°43' W 074°02'2 1.8
2016-Jun-24 22:33N 40°44' W 074°01'0 0.0
2016-Jun-24 21:33N 40°44' W 074°01'0 0.0
2016-Jun-24 20:33N 40°44' W 074°01'0 0.0
2016-Jun-24 19:33N 40°44' W 074°01'0 0.0
2016-Jun-24 18:33N 40°44' W 074°01'0 0.0
2016-Jun-24 17:34N 40°44' W 074°01'0 0.0
2016-Jun-24 16:33N 40°44' W 074°01'1 1.2
2016-Jun-24 15:33N 40°43' W 074°02'1 0.9
2016-Jun-24 14:33N 40°43' W 074°03'  
2016-Jun-19 05:33N 40°43' W 074°02'2 1.7
2016-Jun-19 04:33N 40°44' W 074°01'3 2.9
2016-Jun-19 03:33N 40°41' W 074°02'3 3.4
2016-Jun-19 02:33N 40°45' W 074°01'1 0.8
2016-Jun-19 01:33N 40°44' W 074°01'0 0.0
2016-Jun-19 00:33N 40°44' W 074°01'0 0.0
2016-Jun-18 23:33N 40°44' W 074°01'0 0.0
2016-Jun-18 22:33N 40°44' W 074°01'0 0.0
2016-Jun-18 21:33N 40°44' W 074°01'0 0.0
2016-Jun-18 20:33N 40°44' W 074°01'0 0.0
2016-Jun-18 19:33N 40°44' W 074°01'0 0.0
2016-Jun-18 18:33N 40°44' W 074°01'0 0.0
2016-Jun-18 17:33N 40°44' W 074°01'0 0.0
2016-Jun-18 16:33N 40°44' W 074°01'0 0.0
2016-Jun-18 15:34N 40°44' W 074°01'2 0.1
2016-Jun-17 23:34N 40°43' W 074°03'0 0.0
2016-Jun-17 22:33N 40°43' W 074°03'0 0.0
2016-Jun-17 21:33N 40°43' W 074°03'0 0.0
2016-Jun-17 20:33N 40°43' W 074°03'0 0.0
2016-Jun-17 19:33N 40°43' W 074°03'  

Dump ship's entire track history